Terminal Aerodrome Forecast
Issued by NWS

Home | Current Version | Previous Version | Graphics & Text | Print | Product List | Glossary On
Versions: 1 2 3 4 5 6 7 8 9 10 11 12 13 14 15 16
000
FTUS43 KMPX 201120
TAFAXN
TAF
KAXN 201120Z 2012/2112 VRB02KT 2SM BR SCT010 SCT250
     FM201300 02005KT P6SM SCT250
     FM202100 14006KT P6SM SCT250
     FM210600 13006KT P6SM BKN150=

USA.gov is the U.S. government's official web portal to all federal, state and local government web resources and services.